createdAt,value
2023-05-02T00:00:02.205Z,1.98
2023-05-02T00:02:30.074Z,2.70
2023-05-02T00:04:57.367Z,1.83
2023-05-02T00:07:24.468Z,2.00
2023-05-02T00:09:51.921Z,2.47
2023-05-02T00:12:19.240Z,1.90
2023-05-02T00:14:46.295Z,2.38
2023-05-02T00:17:20.973Z,2.60
2023-05-02T00:19:48.445Z,2.58
2023-05-02T00:22:15.850Z,4.50
2023-05-02T00:24:43.066Z,5.13
2023-05-02T00:27:10.214Z,4.15
2023-05-02T00:29:37.784Z,3.42
2023-05-02T00:32:06.345Z,4.10
2023-05-02T00:34:33.733Z,3.85
2023-05-02T00:37:01.023Z,3.35
2023-05-02T00:39:28.391Z,3.53
2023-05-02T00:42:02.271Z,3.53
2023-05-02T00:44:29.754Z,3.47
2023-05-02T00:46:57.799Z,4.22
2023-05-02T00:49:27.261Z,4.97
2023-05-02T00:51:55.071Z,4.65
2023-05-02T00:54:22.445Z,4.50
2023-05-02T00:56:49.890Z,4.85
2023-05-02T00:59:18.471Z,5.35
2023-05-02T01:02:01.112Z,4.97
2023-05-02T01:04:54.794Z,5.65
2023-05-02T01:07:51.875Z,5.63
2023-05-02T01:10:45.758Z,6.35
2023-05-02T01:13:19.759Z,5.97
2023-05-02T01:15:49.031Z,5.70
2023-05-02T01:18:18.921Z,7.03
2023-05-02T01:20:48.602Z,8.23
2023-05-02T01:23:31.238Z,7.57
2023-05-02T01:26:07.584Z,7.95
2023-05-02T01:28:57.336Z,8.38
2023-05-02T01:31:28.213Z,10.45
2023-05-02T01:33:57.200Z,10.70
2023-05-02T01:36:27.679Z,11.52
2023-05-02T01:38:57.069Z,12.38
2023-05-02T01:41:29.281Z,11.93
2023-05-02T01:44:02.594Z,13.25
2023-05-02T01:46:35.261Z,13.18
2023-05-02T01:49:06.216Z,11.07
2023-05-02T01:51:35.852Z,12.00
2023-05-02T01:54:08.419Z,11.60
2023-05-02T01:56:38.363Z,12.90
2023-05-02T01:59:09.350Z,14.43
2023-05-02T02:01:39.538Z,13.52
2023-05-02T02:04:10.587Z,15.18
2023-05-02T02:06:38.202Z,15.20
2023-05-02T02:09:06.414Z,14.20
2023-05-02T02:11:44.471Z,15.05
2023-05-02T02:14:41.681Z,15.90
2023-05-02T02:17:28.450Z,15.60
2023-05-02T02:19:57.829Z,13.57
2023-05-02T02:22:28.092Z,15.68
2023-05-02T02:24:55.718Z,16.45
2023-05-02T02:27:23.137Z,16.10
2023-05-02T02:29:50.612Z,14.57
2023-05-02T02:32:17.833Z,15.90
2023-05-02T02:34:45.483Z,16.17
2023-05-02T02:37:22.663Z,15.25
2023-05-02T02:40:14.429Z,13.45
2023-05-02T02:42:44.690Z,15.90
2023-05-02T02:45:35.639Z,14.82
2023-05-02T02:48:28.218Z,17.38
2023-05-02T02:51:09.718Z,18.05
2023-05-02T02:53:58.979Z,16.55
2023-05-02T02:56:47.972Z,16.55
2023-05-02T02:59:21.096Z,18.08
2023-05-02T03:02:04.268Z,16.70
2023-05-02T03:04:33.424Z,17.55
2023-05-02T03:07:01.947Z,16.33
2023-05-02T03:09:33.947Z,17.20
2023-05-02T03:12:01.853Z,17.67
2023-05-02T03:14:29.151Z,17.63
2023-05-02T03:16:57.246Z,16.10
2023-05-02T03:19:24.348Z,16.35
2023-05-02T03:21:51.929Z,17.33
2023-05-02T03:24:19.577Z,16.17
2023-05-02T03:26:47.904Z,16.88
2023-05-02T03:29:16.646Z,17.85
2023-05-02T03:31:43.949Z,17.90
2023-05-02T03:34:11.622Z,14.25
2023-05-02T03:36:38.794Z,14.90
2023-05-02T03:39:07.070Z,14.18
2023-05-02T03:41:34.328Z,14.70
2023-05-02T03:44:01.496Z,12.63
2023-05-02T03:46:28.887Z,14.85
2023-05-02T03:48:58.393Z,13.63
2023-05-02T03:51:27.535Z,10.68
2023-05-02T03:53:55.002Z,9.85
2023-05-02T03:56:22.457Z,6.10
2023-05-02T03:58:50.102Z,6.65
2023-05-02T04:01:17.860Z,5.97
2023-05-02T04:03:45.511Z,5.45
2023-05-02T04:06:13.567Z,4.57
2023-05-02T04:08:40.979Z,4.90
2023-05-02T04:11:08.256Z,5.07
2023-05-02T04:13:35.830Z,3.70
2023-05-02T04:16:14.958Z,1.58
2023-05-02T04:18:42.504Z,2.10
2023-05-02T04:21:11.609Z,2.05
2023-05-02T04:23:43.996Z,2.45
2023-05-02T04:26:12.248Z,2.60
2023-05-02T04:28:46.911Z,3.05
2023-05-02T04:31:21.700Z,2.70
2023-05-02T04:33:51.692Z,4.07
2023-05-02T04:36:19.588Z,4.20
2023-05-02T04:38:54.563Z,2.80
2023-05-02T04:41:24.872Z,3.15
2023-05-02T04:43:52.506Z,2.65
2023-05-02T04:46:20.019Z,3.03
2023-05-02T04:48:49.783Z,3.78
2023-05-02T04:51:18.173Z,3.25
2023-05-02T04:53:47.951Z,3.25
2023-05-02T04:56:15.228Z,3.08
2023-05-02T04:58:42.445Z,4.47
2023-05-02T05:01:09.762Z,5.38
2023-05-02T05:03:37.517Z,4.03
2023-05-02T05:06:05.540Z,4.57
2023-05-02T05:08:33.130Z,3.90
2023-05-02T05:11:00.466Z,3.15
2023-05-02T05:13:30.657Z,6.30
2023-05-02T05:15:58.074Z,4.38
2023-05-02T05:18:25.608Z,3.72
2023-05-02T05:20:58.714Z,3.70
2023-05-02T05:23:26.148Z,3.88
2023-05-02T05:25:58.511Z,4.30
2023-05-02T05:28:29.003Z,3.30
2023-05-02T05:30:56.572Z,3.05
2023-05-02T05:33:24.042Z,3.58
2023-05-02T05:35:54.119Z,4.65
2023-05-02T05:38:21.530Z,2.90
2023-05-02T05:41:02.243Z,3.78
2023-05-02T05:43:44.572Z,3.42
2023-05-02T05:46:12.066Z,2.83
2023-05-02T05:49:43.799Z,2.47
2023-05-02T05:52:11.349Z,3.67
2023-05-02T05:54:41.774Z,2.10
2023-05-02T05:57:11.606Z,2.50
2023-05-02T06:00:18.784Z,4.88
2023-05-02T06:02:47.036Z,3.55
2023-05-02T06:05:15.344Z,2.70
2023-05-02T06:07:42.611Z,4.22
2023-05-02T06:10:10.600Z,2.92
2023-05-02T06:12:37.921Z,2.40
2023-05-02T06:15:05.700Z,2.22
2023-05-02T06:17:32.904Z,2.42
2023-05-02T06:20:00.604Z,3.50
2023-05-02T06:22:27.913Z,3.47
2023-05-02T06:24:55.026Z,2.55
2023-05-02T06:27:23.734Z,2.30
2023-05-02T06:29:54.477Z,2.15
2023-05-02T06:32:22.035Z,2.25
2023-05-02T06:34:49.334Z,2.55
2023-05-02T06:37:16.538Z,2.63
2023-05-02T06:39:43.797Z,4.10
2023-05-02T06:42:11.127Z,3.22
2023-05-02T06:44:38.423Z,3.13
2023-05-02T06:47:07.099Z,2.30
2023-05-02T06:49:34.558Z,3.67
2023-05-02T06:52:01.642Z,3.08
2023-05-02T06:54:29.082Z,2.58
2023-05-02T06:56:56.257Z,2.50
2023-05-02T06:59:23.641Z,2.65
2023-05-02T07:01:51.671Z,3.22
2023-05-02T07:04:19.114Z,3.00
2023-05-02T07:06:47.325Z,2.75
2023-05-02T07:09:14.349Z,2.90
2023-05-02T07:11:41.677Z,2.13
2023-05-02T07:14:08.875Z,3.53
2023-05-02T07:16:36.453Z,2.20
2023-05-02T07:19:04.897Z,2.47
2023-05-02T07:21:32.712Z,2.00
2023-05-02T07:23:59.939Z,3.55
2023-05-02T07:26:28.291Z,2.10
2023-05-02T07:28:55.701Z,3.17
2023-05-02T07:31:23.067Z,2.72
2023-05-02T07:33:50.483Z,2.45
2023-05-02T07:36:18.697Z,4.13
2023-05-02T07:38:46.193Z,2.13
2023-05-02T07:41:17.499Z,2.42
2023-05-02T07:43:44.637Z,2.58
2023-05-02T07:46:12.863Z,3.67
2023-05-02T07:48:40.156Z,1.98
2023-05-02T07:51:08.571Z,2.20
2023-05-02T07:53:35.981Z,3.03
2023-05-02T07:56:07.007Z,3.03
2023-05-02T07:58:35.294Z,2.45
2023-05-02T08:01:03.860Z,4.55
2023-05-02T08:03:31.681Z,2.90
2023-05-02T08:05:59.120Z,3.10
2023-05-02T08:08:26.546Z,2.60
2023-05-02T08:10:53.729Z,4.18
2023-05-02T08:13:21.283Z,2.58
2023-05-02T08:15:48.476Z,2.88
2023-05-02T08:18:16.141Z,3.03
2023-05-02T08:20:44.025Z,2.70
2023-05-02T08:23:11.226Z,2.55
2023-05-02T08:25:38.474Z,3.05
2023-05-02T08:28:05.747Z,2.33
2023-05-02T08:30:33.102Z,2.40
2023-05-02T08:33:00.374Z,3.80
2023-05-02T08:35:30.309Z,2.67
2023-05-02T08:37:57.485Z,1.65
2023-05-02T08:40:38.266Z,1.95
2023-05-02T08:43:11.356Z,2.58
2023-05-02T08:45:43.573Z,3.65
2023-05-02T08:48:13.609Z,2.33
2023-05-02T08:50:43.700Z,2.20
2023-05-02T08:53:12.835Z,2.38
2023-05-02T08:55:41.121Z,1.88
2023-05-02T08:58:09.874Z,3.55
2023-05-02T09:00:41.326Z,2.20
2023-05-02T09:03:34.185Z,1.75
2023-05-02T09:06:10.052Z,2.33
2023-05-02T09:08:37.927Z,1.38
2023-05-02T09:11:05.837Z,1.85
2023-05-02T09:13:38.174Z,1.63
2023-05-02T09:16:10.686Z,1.77
2023-05-02T09:18:40.944Z,1.80
2023-05-02T09:21:13.674Z,2.05
2023-05-02T09:23:45.843Z,1.20
2023-05-02T09:26:29.492Z,1.40
2023-05-02T09:28:58.260Z,1.45
2023-05-02T09:31:49.753Z,3.67
2023-05-02T09:34:17.561Z,3.50
2023-05-02T09:36:54.731Z,2.42
2023-05-02T09:39:32.172Z,1.73
2023-05-02T09:42:00.102Z,1.50
2023-05-02T09:44:36.686Z,1.98
2023-05-02T09:47:03.989Z,1.95
2023-05-02T09:49:45.382Z,2.20
2023-05-02T09:52:13.087Z,2.08
2023-05-02T09:54:40.608Z,1.67
2023-05-02T09:57:08.069Z,1.98
2023-05-02T09:59:35.309Z,1.77
2023-05-02T10:02:05.675Z,1.80
2023-05-02T10:04:36.520Z,1.50
2023-05-02T10:07:04.011Z,1.95
2023-05-02T10:09:33.001Z,1.30
2023-05-02T10:12:07.166Z,1.95
2023-05-02T10:14:41.615Z,1.55
2023-05-02T10:17:13.536Z,1.20
2023-05-02T10:19:57.852Z,1.50
2023-05-02T10:22:26.138Z,1.50
2023-05-02T10:24:54.120Z,1.38
2023-05-02T10:27:22.400Z,3.15
2023-05-02T10:29:51.548Z,1.75
2023-05-02T10:32:19.365Z,1.75
2023-05-02T10:34:48.115Z,3.33
2023-05-02T10:37:17.089Z,1.73
2023-05-02T10:39:44.522Z,1.20
2023-05-02T10:42:11.807Z,1.75
2023-05-02T10:44:41.448Z,1.63
2023-05-02T10:47:25.629Z,2.13
2023-05-02T10:49:56.398Z,1.75
2023-05-02T10:52:41.817Z,1.55
2023-05-02T10:55:18.040Z,1.65
2023-05-02T10:58:06.569Z,1.42
2023-05-02T11:00:35.016Z,1.23
2023-05-02T11:03:02.883Z,1.92
2023-05-02T11:05:30.672Z,1.38
2023-05-02T11:08:17.976Z,2.03
2023-05-02T11:10:47.550Z,1.15
2023-05-02T11:13:14.797Z,3.55
2023-05-02T11:15:42.248Z,3.20
2023-05-02T11:18:13.199Z,1.60
2023-05-02T11:20:43.012Z,1.73
2023-05-02T11:23:16.541Z,1.15
2023-05-02T11:25:46.862Z,1.40
2023-05-02T11:28:43.806Z,1.60
2023-05-02T11:31:31.281Z,3.90
2023-05-02T11:34:01.488Z,1.20
2023-05-02T11:36:36.156Z,1.67
2023-05-02T11:39:06.073Z,1.45
2023-05-02T11:41:43.155Z,2.83
2023-05-02T11:44:11.042Z,1.20
2023-05-02T11:46:39.556Z,2.35
2023-05-02T11:49:09.712Z,1.35
2023-05-02T11:51:37.796Z,1.58
2023-05-02T11:54:08.062Z,1.35
2023-05-02T11:56:35.377Z,1.42
2023-05-02T11:59:04.484Z,1.67
2023-05-02T12:01:31.942Z,1.27
2023-05-02T12:04:10.675Z,1.05
2023-05-02T12:06:38.128Z,1.15
2023-05-02T12:09:17.458Z,1.25
2023-05-02T12:11:45.106Z,1.10
2023-05-02T12:14:14.578Z,0.93
2023-05-02T12:16:42.515Z,1.02
2023-05-02T12:19:10.410Z,1.40
2023-05-02T12:21:37.621Z,2.45
2023-05-02T12:24:05.354Z,1.13
2023-05-02T12:26:33.950Z,1.60
2023-05-02T12:29:03.038Z,1.33
2023-05-02T12:31:32.491Z,1.17
2023-05-02T12:34:01.512Z,1.13
2023-05-02T12:36:29.083Z,0.80
2023-05-02T12:39:01.924Z,1.35
2023-05-02T12:41:37.718Z,1.67
2023-05-02T12:44:06.541Z,1.58
2023-05-02T12:46:34.114Z,2.20
2023-05-02T12:49:06.442Z,1.00
2023-05-02T12:51:34.968Z,1.50
2023-05-02T12:54:02.999Z,1.60
2023-05-02T12:56:32.978Z,1.50
2023-05-02T12:59:01.808Z,1.52
2023-05-02T13:01:29.664Z,1.85
2023-05-02T13:03:59.891Z,1.38
2023-05-02T13:06:27.847Z,1.08
2023-05-02T13:08:55.224Z,1.38
2023-05-02T13:11:22.627Z,1.17
2023-05-02T13:13:49.986Z,1.92
2023-05-02T13:16:20.099Z,1.17
2023-05-02T13:18:48.118Z,1.20
2023-05-02T13:21:15.502Z,1.67
2023-05-02T13:23:44.652Z,1.38
2023-05-02T13:26:12.073Z,1.20
2023-05-02T13:28:41.925Z,1.70
2023-05-02T13:31:09.295Z,1.05
2023-05-02T13:33:36.649Z,1.17
2023-05-02T13:36:04.089Z,1.10
2023-05-02T13:38:31.527Z,1.45
2023-05-02T13:40:58.797Z,1.60
2023-05-02T13:43:26.138Z,1.08
2023-05-02T13:45:53.265Z,1.13
2023-05-02T13:48:20.906Z,1.10
2023-05-02T13:50:47.989Z,1.20
2023-05-02T13:53:15.285Z,1.23
2023-05-02T13:55:42.446Z,1.23
2023-05-02T13:58:09.697Z,1.38
2023-05-02T14:00:37.453Z,0.98
2023-05-02T14:03:05.448Z,1.50
2023-05-02T14:05:33.080Z,1.17
2023-05-02T14:08:00.370Z,1.23
2023-05-02T14:10:27.549Z,0.90
2023-05-02T14:12:56.623Z,1.20
2023-05-02T14:15:24.250Z,1.55
2023-05-02T14:17:51.459Z,1.10
2023-05-02T14:20:18.725Z,1.10
2023-05-02T14:22:45.925Z,2.05
2023-05-02T14:25:14.302Z,1.92
2023-05-02T14:27:42.467Z,1.45
2023-05-02T14:30:10.172Z,1.50
2023-05-02T14:32:37.299Z,1.15
2023-05-02T14:35:04.634Z,1.30
2023-05-02T14:37:31.982Z,1.80
2023-05-02T14:40:01.830Z,1.52
2023-05-02T14:42:29.123Z,1.52
2023-05-02T14:44:58.783Z,1.85
2023-05-02T14:47:30.564Z,1.27
2023-05-02T14:49:57.906Z,1.08
2023-05-02T14:52:25.416Z,1.63
2023-05-02T14:54:53.574Z,1.05
2023-05-02T14:57:21.036Z,1.30
2023-05-02T14:59:48.662Z,1.80
2023-05-02T15:02:19.272Z,1.50
2023-05-02T15:04:46.963Z,1.33
2023-05-02T15:07:14.317Z,2.00
2023-05-02T15:09:41.926Z,1.77
2023-05-02T15:12:12.381Z,1.88
2023-05-02T15:14:39.736Z,1.50
2023-05-02T15:17:10.130Z,1.75
2023-05-02T15:19:37.442Z,2.35
2023-05-02T15:22:04.645Z,1.33
2023-05-02T15:24:32.102Z,1.13
2023-05-02T15:26:59.350Z,1.50
2023-05-02T15:29:26.593Z,1.48
2023-05-02T15:31:55.066Z,2.47
2023-05-02T15:34:22.187Z,1.70
2023-05-02T15:36:49.438Z,1.60
2023-05-02T15:39:16.730Z,1.08
2023-05-02T15:41:46.797Z,1.98
2023-05-02T15:44:14.392Z,2.55
2023-05-02T15:46:46.879Z,1.60
2023-05-02T15:49:14.457Z,2.05
2023-05-02T15:51:42.999Z,2.08
2023-05-02T15:54:10.547Z,1.90
2023-05-02T15:56:38.195Z,2.13
2023-05-02T15:59:05.393Z,2.88
2023-05-02T16:01:32.608Z,3.95
2023-05-02T16:04:00.185Z,2.00
2023-05-02T16:06:27.937Z,1.42
2023-05-02T16:08:55.851Z,1.27
2023-05-02T16:11:23.086Z,1.90
2023-05-02T16:13:50.262Z,2.22
2023-05-02T16:16:17.553Z,1.88
2023-05-02T16:18:44.915Z,2.13
2023-05-02T16:21:12.218Z,1.70
2023-05-02T16:23:42.442Z,1.38
2023-05-02T16:26:10.439Z,1.48
2023-05-02T16:28:37.683Z,1.50
2023-05-02T16:31:11.407Z,2.65
2023-05-02T16:33:39.625Z,0.95
2023-05-02T16:36:07.267Z,2.38
2023-05-02T16:38:36.575Z,1.65
2023-05-02T16:41:05.923Z,1.30
2023-05-02T16:43:33.658Z,1.80
2023-05-02T16:46:06.322Z,2.30
2023-05-02T16:48:34.755Z,2.38
2023-05-02T16:51:04.235Z,1.63
2023-05-02T16:53:31.946Z,1.35
2023-05-02T16:55:59.901Z,2.72
2023-05-02T16:58:29.320Z,1.60
2023-05-02T17:00:57.346Z,2.53
2023-05-02T17:03:24.584Z,1.50
2023-05-02T17:05:51.842Z,1.05
2023-05-02T17:08:19.039Z,1.45
2023-05-02T17:10:50.466Z,1.00
2023-05-02T17:13:18.013Z,2.95
2023-05-02T17:15:45.480Z,3.00
2023-05-02T17:18:12.904Z,1.10
2023-05-02T17:20:41.352Z,1.23
2023-05-02T17:23:10.406Z,1.20
2023-05-02T17:25:48.435Z,1.00
2023-05-02T17:28:16.172Z,1.10
2023-05-02T17:30:43.868Z,1.85
2023-05-02T17:33:11.876Z,1.48
2023-05-02T17:35:39.112Z,1.20
2023-05-02T17:38:06.528Z,1.35
2023-05-02T17:40:35.345Z,1.30
2023-05-02T17:43:03.394Z,1.55
2023-05-02T17:45:30.764Z,2.50
2023-05-02T17:48:02.138Z,1.52
2023-05-02T17:50:31.288Z,2.10
2023-05-02T17:52:59.543Z,1.10
2023-05-02T17:55:26.675Z,1.58
2023-05-02T17:57:54.056Z,1.42
2023-05-02T18:00:24.150Z,1.95
2023-05-02T18:02:51.490Z,2.03
2023-05-02T18:05:18.853Z,3.63
2023-05-02T18:07:49.812Z,3.90
2023-05-02T18:10:17.792Z,1.30
2023-05-02T18:12:45.197Z,1.50
2023-05-02T18:15:12.458Z,1.25
2023-05-02T18:17:39.874Z,1.98
2023-05-02T18:20:07.662Z,1.30
2023-05-02T18:22:34.945Z,1.52
2023-05-02T18:25:02.550Z,1.20
2023-05-02T18:27:30.680Z,1.92
2023-05-02T18:29:57.881Z,1.17
2023-05-02T18:32:26.310Z,1.08
2023-05-02T18:34:53.545Z,1.40
2023-05-02T18:37:22.197Z,1.35
2023-05-02T18:39:49.562Z,1.23
2023-05-02T18:42:16.842Z,24.85
2023-05-02T18:44:44.561Z,2.65
2023-05-02T18:47:15.746Z,1.58
2023-05-02T18:49:44.543Z,11.05
2023-05-02T18:52:12.214Z,3.83
2023-05-02T18:54:39.670Z,2.13
2023-05-02T18:57:06.986Z,4.03
2023-05-02T18:59:34.360Z,7.47
2023-05-02T19:02:01.704Z,3.17
2023-05-02T19:04:33.879Z,3.10
2023-05-02T19:07:01.146Z,9.88
2023-05-02T19:09:28.412Z,1.92
2023-05-02T19:11:55.824Z,1.67
2023-05-02T19:14:23.466Z,2.15
2023-05-02T19:17:10.913Z,1.73
2023-05-02T19:19:40.870Z,1.58
2023-05-02T19:22:10.210Z,1.52
2023-05-02T19:24:37.564Z,1.23
2023-05-02T19:27:07.974Z,1.40
2023-05-02T19:29:36.008Z,1.90
2023-05-02T19:32:04.055Z,1.70
2023-05-02T19:34:32.508Z,1.13
2023-05-02T19:36:59.905Z,1.90
2023-05-02T19:39:29.063Z,1.23
2023-05-02T19:41:57.071Z,1.80
2023-05-02T19:44:24.448Z,2.58
2023-05-02T19:46:52.147Z,1.70
2023-05-02T19:49:19.531Z,4.78
2023-05-02T19:51:46.863Z,2.95
2023-05-02T19:54:15.175Z,1.73
2023-05-02T19:56:43.648Z,1.67
2023-05-02T19:59:10.790Z,1.30
2023-05-02T20:01:38.321Z,1.48
2023-05-02T20:04:06.113Z,1.70
2023-05-02T20:06:33.670Z,1.80
2023-05-02T20:09:01.044Z,1.58
2023-05-02T20:11:28.503Z,1.27
2023-05-02T20:13:55.961Z,2.00
2023-05-02T20:16:23.299Z,1.75
2023-05-02T20:18:50.565Z,1.10
2023-05-02T20:21:17.742Z,3.15
2023-05-02T20:23:45.432Z,1.67
2023-05-02T20:26:14.315Z,1.80
2023-05-02T20:28:41.610Z,1.55
2023-05-02T20:31:08.995Z,1.90
2023-05-02T20:33:44.434Z,1.73
2023-05-02T20:36:13.585Z,1.70
2023-05-02T20:38:43.043Z,2.42
2023-05-02T20:41:13.079Z,1.75
2023-05-02T20:43:41.858Z,1.80
2023-05-02T20:46:11.131Z,1.70
2023-05-02T20:48:38.596Z,2.10
2023-05-02T20:51:05.923Z,1.40
2023-05-02T20:53:33.619Z,1.70
2023-05-02T20:56:01.185Z,1.60
2023-05-02T20:58:28.449Z,1.50
2023-05-02T21:00:55.848Z,1.58
2023-05-02T21:03:23.411Z,1.60
2023-05-02T21:05:59.816Z,1.65
2023-05-02T21:08:27.541Z,1.48
2023-05-02T21:10:54.729Z,1.13
2023-05-02T21:13:22.543Z,0.90
2023-05-02T21:15:49.695Z,1.23
2023-05-02T21:18:16.926Z,1.05
2023-05-02T21:20:44.587Z,1.38
2023-05-02T21:23:12.321Z,1.67
2023-05-02T21:25:39.572Z,1.35
2023-05-02T21:28:06.974Z,9.38
2023-05-02T21:30:37.130Z,14.40
2023-05-02T21:33:04.612Z,3.15
2023-05-02T21:35:34.318Z,1.55
2023-05-02T21:38:01.929Z,2.88
2023-05-02T21:40:31.930Z,7.60
2023-05-02T21:42:59.279Z,16.80
2023-05-02T21:45:27.032Z,2.97
2023-05-02T21:47:54.704Z,22.25
2023-05-02T21:50:22.088Z,4.18
2023-05-02T21:52:49.656Z,1.67
2023-05-02T21:55:17.177Z,1.30
2023-05-02T21:57:44.605Z,1.20
2023-05-02T22:00:13.379Z,1.10
2023-05-02T22:02:40.913Z,1.27
2023-05-02T22:05:08.839Z,2.13
2023-05-02T22:07:37.227Z,3.40
2023-05-02T22:10:04.947Z,1.08
2023-05-02T22:12:32.552Z,1.08
2023-05-02T22:14:59.932Z,1.38
2023-05-02T22:17:27.562Z,1.63
2023-05-02T22:19:55.541Z,1.23
2023-05-02T22:22:22.959Z,1.52
2023-05-02T22:24:50.408Z,1.38
2023-05-02T22:27:17.683Z,2.25
2023-05-02T22:29:44.983Z,1.65
2023-05-02T22:32:12.181Z,1.30
2023-05-02T22:34:39.405Z,2.83
2023-05-02T22:37:06.650Z,0.95
2023-05-02T22:39:34.420Z,1.40
2023-05-02T22:42:01.781Z,0.80
2023-05-02T22:44:29.089Z,1.20
2023-05-02T22:46:56.759Z,1.27
2023-05-02T22:49:24.007Z,1.15
2023-05-02T22:51:52.249Z,1.35
2023-05-02T22:54:19.685Z,1.50
2023-05-02T22:56:46.790Z,1.48
2023-05-02T22:59:15.697Z,1.33
2023-05-02T23:01:42.810Z,1.00
2023-05-02T23:04:10.399Z,1.65
2023-05-02T23:06:37.621Z,1.33
2023-05-02T23:09:04.934Z,1.00
2023-05-02T23:11:32.156Z,1.95
2023-05-02T23:13:59.651Z,1.30
2023-05-02T23:16:27.216Z,1.00
2023-05-02T23:18:55.266Z,1.17
2023-05-02T23:21:22.472Z,1.00
2023-05-02T23:23:49.726Z,1.27
2023-05-02T23:26:17.004Z,1.27
2023-05-02T23:28:44.525Z,1.75
2023-05-02T23:31:13.178Z,1.85
2023-05-02T23:33:40.594Z,1.58
2023-05-02T23:36:08.491Z,1.33
2023-05-02T23:38:36.319Z,1.42
2023-05-02T23:41:03.713Z,1.70
2023-05-02T23:43:30.848Z,1.08
2023-05-02T23:45:58.428Z,1.38
2023-05-02T23:48:25.565Z,1.33
2023-05-02T23:50:53.045Z,1.60
2023-05-02T23:53:20.242Z,1.30
2023-05-02T23:55:47.527Z,1.23
2023-05-02T23:58:14.777Z,1.30
